sensor_id;sensor_type;location;lat;lon;timestamp;P1;durP1;ratioP1;P2;durP2;ratioP2
29634;SDS011;16557;54.762;56.068;2023-10-08T00:02:10;2.87;;;1.80;;
29634;SDS011;16557;54.762;56.068;2023-10-08T00:04:58;4.25;;;1.75;;
29634;SDS011;16557;54.762;56.068;2023-10-08T00:07:44;3.17;;;2.10;;
29634;SDS011;16557;54.762;56.068;2023-10-08T00:10:24;4.47;;;2.10;;
29634;SDS011;16557;54.762;56.068;2023-10-08T00:13:04;2.27;;;1.90;;
29634;SDS011;16557;54.762;56.068;2023-10-08T00:15:47;2.45;;;2.22;;
29634;SDS011;16557;54.762;56.068;2023-10-08T00:18:34;5.00;;;2.12;;
29634;SDS011;16557;54.762;56.068;2023-10-08T00:21:15;5.12;;;2.25;;
29634;SDS011;16557;54.762;56.068;2023-10-08T00:23:59;3.22;;;2.40;;
29634;SDS011;16557;54.762;56.068;2023-10-08T00:26:40;4.37;;;2.20;;
29634;SDS011;16557;54.762;56.068;2023-10-08T00:29:21;2.52;;;2.33;;
29634;SDS011;16557;54.762;56.068;2023-10-08T00:32:01;3.35;;;2.15;;
29634;SDS011;16557;54.762;56.068;2023-10-08T00:34:46;6.42;;;2.87;;
29634;SDS011;16557;54.762;56.068;2023-10-08T00:37:26;2.77;;;2.40;;
29634;SDS011;16557;54.762;56.068;2023-10-08T00:40:08;2.70;;;2.30;;
29634;SDS011;16557;54.762;56.068;2023-10-08T00:42:50;3.55;;;2.52;;
29634;SDS011;16557;54.762;56.068;2023-10-08T00:45:37;4.55;;;2.50;;
29634;SDS011;16557;54.762;56.068;2023-10-08T00:48:21;3.98;;;2.52;;
29634;SDS011;16557;54.762;56.068;2023-10-08T00:51:03;2.90;;;2.55;;
29634;SDS011;16557;54.762;56.068;2023-10-08T00:56:37;3.00;;;2.20;;
29634;SDS011;16557;54.762;56.068;2023-10-08T00:59:33;4.10;;;2.33;;
29634;SDS011;16557;54.762;56.068;2023-10-08T01:02:18;4.95;;;2.83;;
29634;SDS011;16557;54.762;56.068;2023-10-08T01:05:00;3.55;;;2.72;;
29634;SDS011;16557;54.762;56.068;2023-10-08T01:07:41;2.40;;;2.10;;
29634;SDS011;16557;54.762;56.068;2023-10-08T01:10:23;3.30;;;2.60;;
29634;SDS011;16557;54.762;56.068;2023-10-08T01:13:03;4.25;;;2.67;;
29634;SDS011;16557;54.762;56.068;2023-10-08T01:15:45;4.42;;;2.95;;
29634;SDS011;16557;54.762;56.068;2023-10-08T01:18:26;3.92;;;3.08;;
29634;SDS011;16557;54.762;56.068;2023-10-08T01:21:17;7.03;;;3.12;;
29634;SDS011;16557;54.762;56.068;2023-10-08T01:23:58;3.75;;;2.65;;
29634;SDS011;16557;54.762;56.068;2023-10-08T01:26:41;3.90;;;2.72;;
29634;SDS011;16557;54.762;56.068;2023-10-08T01:29:23;3.70;;;2.87;;
29634;SDS011;16557;54.762;56.068;2023-10-08T01:32:06;4.67;;;3.00;;
29634;SDS011;16557;54.762;56.068;2023-10-08T01:34:47;3.72;;;3.20;;
29634;SDS011;16557;54.762;56.068;2023-10-08T01:37:28;4.58;;;3.42;;
29634;SDS011;16557;54.762;56.068;2023-10-08T01:40:09;3.62;;;3.30;;
29634;SDS011;16557;54.762;56.068;2023-10-08T01:42:50;5.72;;;3.80;;
29634;SDS011;16557;54.762;56.068;2023-10-08T01:45:37;6.15;;;3.37;;
29634;SDS011;16557;54.762;56.068;2023-10-08T01:48:19;4.83;;;3.40;;
29634;SDS011;16557;54.762;56.068;2023-10-08T01:51:00;4.47;;;3.02;;
29634;SDS011;16557;54.762;56.068;2023-10-08T01:53:42;3.45;;;3.05;;
29634;SDS011;16557;54.762;56.068;2023-10-08T01:56:22;3.47;;;2.60;;
29634;SDS011;16557;54.762;56.068;2023-10-08T01:59:02;4.37;;;2.70;;
29634;SDS011;16557;54.762;56.068;2023-10-08T02:01:42;3.17;;;2.52;;
29634;SDS011;16557;54.762;56.068;2023-10-08T02:04:24;3.40;;;2.90;;
29634;SDS011;16557;54.762;56.068;2023-10-08T02:07:06;3.85;;;2.67;;
29634;SDS011;16557;54.762;56.068;2023-10-08T02:09:48;3.15;;;2.70;;
29634;SDS011;16557;54.762;56.068;2023-10-08T02:12:28;3.02;;;2.70;;
29634;SDS011;16557;54.762;56.068;2023-10-08T02:15:12;4.22;;;2.70;;
29634;SDS011;16557;54.762;56.068;2023-10-08T02:17:52;3.35;;;3.00;;
29634;SDS011;16557;54.762;56.068;2023-10-08T02:20:33;6.30;;;3.17;;
29634;SDS011;16557;54.762;56.068;2023-10-08T02:23:12;5.20;;;3.05;;
29634;SDS011;16557;54.762;56.068;2023-10-08T02:25:52;5.17;;;2.75;;
29634;SDS011;16557;54.762;56.068;2023-10-08T02:28:39;4.10;;;3.10;;
29634;SDS011;16557;54.762;56.068;2023-10-08T02:31:19;3.30;;;2.75;;
29634;SDS011;16557;54.762;56.068;2023-10-08T02:33:59;3.10;;;2.30;;
29634;SDS011;16557;54.762;56.068;2023-10-08T02:36:40;3.37;;;2.87;;
29634;SDS011;16557;54.762;56.068;2023-10-08T02:39:20;5.37;;;3.00;;
29634;SDS011;16557;54.762;56.068;2023-10-08T02:42:01;4.37;;;3.02;;
29634;SDS011;16557;54.762;56.068;2023-10-08T02:44:43;4.12;;;2.72;;
29634;SDS011;16557;54.762;56.068;2023-10-08T02:47:23;3.40;;;3.00;;
29634;SDS011;16557;54.762;56.068;2023-10-08T02:50:03;4.58;;;2.75;;
29634;SDS011;16557;54.762;56.068;2023-10-08T02:52:45;3.25;;;2.77;;
29634;SDS011;16557;54.762;56.068;2023-10-08T02:55:27;3.65;;;2.50;;
29634;SDS011;16557;54.762;56.068;2023-10-08T02:58:08;3.30;;;2.50;;
29634;SDS011;16557;54.762;56.068;2023-10-08T03:01:04;3.92;;;2.80;;
29634;SDS011;16557;54.762;56.068;2023-10-08T03:03:50;4.00;;;3.12;;
29634;SDS011;16557;54.762;56.068;2023-10-08T03:06:31;5.47;;;3.00;;
29634;SDS011;16557;54.762;56.068;2023-10-08T03:09:11;4.17;;;2.77;;
29634;SDS011;16557;54.762;56.068;2023-10-08T03:11:51;2.85;;;2.50;;
29634;SDS011;16557;54.762;56.068;2023-10-08T03:14:37;5.25;;;3.10;;
29634;SDS011;16557;54.762;56.068;2023-10-08T03:17:20;3.62;;;3.08;;
29634;SDS011;16557;54.762;56.068;2023-10-08T03:20:00;5.15;;;3.10;;
29634;SDS011;16557;54.762;56.068;2023-10-08T03:22:48;3.45;;;3.05;;
29634;SDS011;16557;54.762;56.068;2023-10-08T03:25:28;4.42;;;3.40;;
29634;SDS011;16557;54.762;56.068;2023-10-08T03:28:08;3.27;;;2.98;;
29634;SDS011;16557;54.762;56.068;2023-10-08T03:30:51;3.90;;;3.35;;
29634;SDS011;16557;54.762;56.068;2023-10-08T03:33:35;3.92;;;3.52;;
29634;SDS011;16557;54.762;56.068;2023-10-08T03:36:16;5.10;;;3.37;;
29634;SDS011;16557;54.762;56.068;2023-10-08T03:39:07;3.45;;;3.15;;
29634;SDS011;16557;54.762;56.068;2023-10-08T03:41:51;4.92;;;3.70;;
29634;SDS011;16557;54.762;56.068;2023-10-08T03:44:39;4.65;;;3.37;;
29634;SDS011;16557;54.762;56.068;2023-10-08T03:47:21;3.80;;;3.33;;
29634;SDS011;16557;54.762;56.068;2023-10-08T03:50:05;4.85;;;4.00;;
29634;SDS011;16557;54.762;56.068;2023-10-08T03:52:48;10.88;;;4.10;;
29634;SDS011;16557;54.762;56.068;2023-10-08T03:55:29;7.55;;;6.80;;
29634;SDS011;16557;54.762;56.068;2023-10-08T03:58:10;4.85;;;4.17;;
29634;SDS011;16557;54.762;56.068;2023-10-08T04:00:52;3.27;;;2.72;;
29634;SDS011;16557;54.762;56.068;2023-10-08T04:03:35;6.25;;;4.00;;
29634;SDS011;16557;54.762;56.068;2023-10-08T04:06:31;4.62;;;3.40;;
29634;SDS011;16557;54.762;56.068;2023-10-08T04:09:15;5.00;;;3.85;;
29634;SDS011;16557;54.762;56.068;2023-10-08T04:12:00;5.58;;;4.03;;
29634;SDS011;16557;54.762;56.068;2023-10-08T04:14:42;9.35;;;3.75;;
29634;SDS011;16557;54.762;56.068;2023-10-08T04:17:22;6.37;;;3.80;;
29634;SDS011;16557;54.762;56.068;2023-10-08T04:20:08;4.92;;;4.08;;
29634;SDS011;16557;54.762;56.068;2023-10-08T04:23:10;6.72;;;3.60;;
29634;SDS011;16557;54.762;56.068;2023-10-08T04:25:54;5.00;;;3.45;;
29634;SDS011;16557;54.762;56.068;2023-10-08T04:28:41;4.85;;;3.90;;
29634;SDS011;16557;54.762;56.068;2023-10-08T04:31:21;6.60;;;3.60;;
29634;SDS011;16557;54.762;56.068;2023-10-08T04:34:03;6.55;;;3.58;;
29634;SDS011;16557;54.762;56.068;2023-10-08T04:36:55;5.85;;;3.55;;
29634;SDS011;16557;54.762;56.068;2023-10-08T04:39:42;5.03;;;3.50;;
29634;SDS011;16557;54.762;56.068;2023-10-08T04:42:25;5.08;;;2.83;;
29634;SDS011;16557;54.762;56.068;2023-10-08T04:45:06;3.22;;;2.92;;
29634;SDS011;16557;54.762;56.068;2023-10-08T04:47:50;3.65;;;2.70;;
29634;SDS011;16557;54.762;56.068;2023-10-08T04:50:30;3.95;;;3.17;;
29634;SDS011;16557;54.762;56.068;2023-10-08T04:53:13;5.50;;;2.98;;
29634;SDS011;16557;54.762;56.068;2023-10-08T04:56:02;3.12;;;2.83;;
29634;SDS011;16557;54.762;56.068;2023-10-08T04:58:49;5.20;;;3.20;;
29634;SDS011;16557;54.762;56.068;2023-10-08T05:01:30;4.08;;;3.12;;
29634;SDS011;16557;54.762;56.068;2023-10-08T05:04:19;3.80;;;2.95;;
29634;SDS011;16557;54.762;56.068;2023-10-08T05:07:14;3.90;;;3.50;;
29634;SDS011;16557;54.762;56.068;2023-10-08T05:10:01;7.17;;;5.20;;
29634;SDS011;16557;54.762;56.068;2023-10-08T05:12:43;4.65;;;3.67;;
29634;SDS011;16557;54.762;56.068;2023-10-08T05:15:27;5.10;;;3.50;;
29634;SDS011;16557;54.762;56.068;2023-10-08T05:18:25;4.12;;;3.72;;
29634;SDS011;16557;54.762;56.068;2023-10-08T05:21:06;7.85;;;3.98;;
29634;SDS011;16557;54.762;56.068;2023-10-08T05:23:48;3.55;;;3.25;;
29634;SDS011;16557;54.762;56.068;2023-10-08T05:26:45;5.10;;;3.80;;
29634;SDS011;16557;54.762;56.068;2023-10-08T05:29:27;4.17;;;3.70;;
29634;SDS011;16557;54.762;56.068;2023-10-08T05:32:09;4.53;;;3.67;;
29634;SDS011;16557;54.762;56.068;2023-10-08T05:35:08;5.20;;;3.27;;
29634;SDS011;16557;54.762;56.068;2023-10-08T05:38:09;4.17;;;3.62;;
29634;SDS011;16557;54.762;56.068;2023-10-08T05:41:11;4.85;;;3.02;;
29634;SDS011;16557;54.762;56.068;2023-10-08T05:43:58;4.90;;;3.00;;
29634;SDS011;16557;54.762;56.068;2023-10-08T05:46:55;4.37;;;3.12;;
29634;SDS011;16557;54.762;56.068;2023-10-08T05:49:36;2.80;;;2.10;;
29634;SDS011;16557;54.762;56.068;2023-10-08T05:52:18;4.03;;;2.27;;
29634;SDS011;16557;54.762;56.068;2023-10-08T05:55:09;3.37;;;2.27;;
29634;SDS011;16557;54.762;56.068;2023-10-08T05:57:58;2.83;;;2.02;;
29634;SDS011;16557;54.762;56.068;2023-10-08T06:00:54;4.42;;;2.05;;
29634;SDS011;16557;54.762;56.068;2023-10-08T06:03:55;3.50;;;2.20;;
29634;SDS011;16557;54.762;56.068;2023-10-08T06:06:41;3.47;;;2.40;;
29634;SDS011;16557;54.762;56.068;2023-10-08T06:09:23;3.05;;;1.80;;
29634;SDS011;16557;54.762;56.068;2023-10-08T06:12:05;5.10;;;3.80;;
29634;SDS011;16557;54.762;56.068;2023-10-08T06:14:50;4.12;;;1.90;;
29634;SDS011;16557;54.762;56.068;2023-10-08T06:17:55;1.95;;;1.72;;
29634;SDS011;16557;54.762;56.068;2023-10-08T06:20:37;4.53;;;3.47;;
29634;SDS011;16557;54.762;56.068;2023-10-08T06:23:18;3.75;;;2.33;;
29634;SDS011;16557;54.762;56.068;2023-10-08T06:25:58;3.50;;;2.60;;
29634;SDS011;16557;54.762;56.068;2023-10-08T06:28:41;3.85;;;2.60;;
29634;SDS011;16557;54.762;56.068;2023-10-08T06:31:22;2.52;;;1.87;;
29634;SDS011;16557;54.762;56.068;2023-10-08T06:34:04;2.62;;;1.50;;
29634;SDS011;16557;54.762;56.068;2023-10-08T06:36:45;2.08;;;1.40;;
29634;SDS011;16557;54.762;56.068;2023-10-08T06:39:34;2.37;;;1.47;;
29634;SDS011;16557;54.762;56.068;2023-10-08T06:42:27;2.33;;;1.60;;
29634;SDS011;16557;54.762;56.068;2023-10-08T06:45:19;3.17;;;1.60;;
29634;SDS011;16557;54.762;56.068;2023-10-08T06:48:00;3.12;;;2.22;;
29634;SDS011;16557;54.762;56.068;2023-10-08T06:50:42;3.55;;;2.90;;
29634;SDS011;16557;54.762;56.068;2023-10-08T06:53:45;6.10;;;5.53;;
29634;SDS011;16557;54.762;56.068;2023-10-08T06:56:30;10.45;;;9.10;;
29634;SDS011;16557;54.762;56.068;2023-10-08T06:59:15;14.50;;;13.10;;
29634;SDS011;16557;54.762;56.068;2023-10-08T07:02:01;14.80;;;13.30;;
29634;SDS011;16557;54.762;56.068;2023-10-08T07:04:46;16.30;;;14.60;;
29634;SDS011;16557;54.762;56.068;2023-10-08T07:07:35;16.62;;;14.87;;
29634;SDS011;16557;54.762;56.068;2023-10-08T07:10:16;15.88;;;14.33;;
29634;SDS011;16557;54.762;56.068;2023-10-08T07:12:58;15.48;;;13.88;;
29634;SDS011;16557;54.762;56.068;2023-10-08T07:15:41;14.83;;;13.08;;
29634;SDS011;16557;54.762;56.068;2023-10-08T07:18:33;10.10;;;9.10;;
29634;SDS011;16557;54.762;56.068;2023-10-08T07:21:14;7.72;;;6.87;;
29634;SDS011;16557;54.762;56.068;2023-10-08T07:24:01;7.12;;;6.50;;
29634;SDS011;16557;54.762;56.068;2023-10-08T07:26:43;6.08;;;5.47;;
29634;SDS011;16557;54.762;56.068;2023-10-08T07:29:40;5.60;;;5.10;;
29634;SDS011;16557;54.762;56.068;2023-10-08T07:32:28;5.97;;;5.37;;
29634;SDS011;16557;54.762;56.068;2023-10-08T07:35:17;5.08;;;4.58;;
29634;SDS011;16557;54.762;56.068;2023-10-08T07:38:10;4.25;;;3.80;;
29634;SDS011;16557;54.762;56.068;2023-10-08T07:40:50;4.25;;;3.30;;
29634;SDS011;16557;54.762;56.068;2023-10-08T07:43:39;4.15;;;3.75;;
29634;SDS011;16557;54.762;56.068;2023-10-08T07:46:22;3.05;;;2.80;;
29634;SDS011;16557;54.762;56.068;2023-10-08T07:49:09;3.35;;;3.02;;
29634;SDS011;16557;54.762;56.068;2023-10-08T07:51:58;3.22;;;2.70;;
29634;SDS011;16557;54.762;56.068;2023-10-08T07:54:38;3.35;;;2.60;;
29634;SDS011;16557;54.762;56.068;2023-10-08T07:57:18;2.50;;;2.30;;
29634;SDS011;16557;54.762;56.068;2023-10-08T08:00:04;2.33;;;2.12;;
29634;SDS011;16557;54.762;56.068;2023-10-08T08:02:58;2.87;;;2.00;;
29634;SDS011;16557;54.762;56.068;2023-10-08T08:05:40;3.75;;;2.58;;
29634;SDS011;16557;54.762;56.068;2023-10-08T08:08:21;1.80;;;1.52;;
29634;SDS011;16557;54.762;56.068;2023-10-08T08:11:09;2.92;;;2.08;;
29634;SDS011;16557;54.762;56.068;2023-10-08T08:13:54;3.95;;;3.58;;
29634;SDS011;16557;54.762;56.068;2023-10-08T08:16:33;1.95;;;1.30;;
29634;SDS011;16557;54.762;56.068;2023-10-08T08:19:15;1.67;;;1.40;;
29634;SDS011;16557;54.762;56.068;2023-10-08T08:21:55;1.20;;;1.10;;
29634;SDS011;16557;54.762;56.068;2023-10-08T08:24:37;1.17;;;1.07;;
29634;SDS011;16557;54.762;56.068;2023-10-08T08:27:17;2.27;;;1.52;;
29634;SDS011;16557;54.762;56.068;2023-10-08T08:30:07;2.35;;;1.47;;
29634;SDS011;16557;54.762;56.068;2023-10-08T08:32:52;2.12;;;1.30;;
29634;SDS011;16557;54.762;56.068;2023-10-08T08:35:40;1.67;;;1.35;;
29634;SDS011;16557;54.762;56.068;2023-10-08T08:38:20;1.95;;;1.50;;
29634;SDS011;16557;54.762;56.068;2023-10-08T08:41:03;2.92;;;1.62;;
29634;SDS011;16557;54.762;56.068;2023-10-08T08:43:48;2.12;;;1.82;;
29634;SDS011;16557;54.762;56.068;2023-10-08T08:46:36;3.20;;;2.83;;
29634;SDS011;16557;54.762;56.068;2023-10-08T08:49:18;3.50;;;2.02;;
29634;SDS011;16557;54.762;56.068;2023-10-08T08:51:58;2.47;;;2.27;;
29634;SDS011;16557;54.762;56.068;2023-10-08T08:54:44;3.45;;;2.65;;
29634;SDS011;16557;54.762;56.068;2023-10-08T08:57:25;3.80;;;3.40;;
29634;SDS011;16557;54.762;56.068;2023-10-08T09:00:05;3.90;;;3.60;;
29634;SDS011;16557;54.762;56.068;2023-10-08T09:02:50;4.12;;;3.47;;
29634;SDS011;16557;54.762;56.068;2023-10-08T09:05:31;4.50;;;4.10;;
29634;SDS011;16557;54.762;56.068;2023-10-08T09:08:16;4.83;;;4.42;;
29634;SDS011;16557;54.762;56.068;2023-10-08T09:10:57;5.10;;;4.58;;
29634;SDS011;16557;54.762;56.068;2023-10-08T09:13:39;8.10;;;7.30;;
29634;SDS011;16557;54.762;56.068;2023-10-08T09:16:19;5.83;;;5.33;;
29634;SDS011;16557;54.762;56.068;2023-10-08T09:19:01;5.45;;;4.95;;
29634;SDS011;16557;54.762;56.068;2023-10-08T09:22:01;6.83;;;6.17;;
29634;SDS011;16557;54.762;56.068;2023-10-08T09:24:42;6.17;;;5.67;;
29634;SDS011;16557;54.762;56.068;2023-10-08T09:27:24;7.33;;;6.60;;
29634;SDS011;16557;54.762;56.068;2023-10-08T09:30:06;6.50;;;5.92;;
29634;SDS011;16557;54.762;56.068;2023-10-08T09:32:48;8.33;;;7.60;;
29634;SDS011;16557;54.762;56.068;2023-10-08T09:35:29;7.72;;;6.85;;
29634;SDS011;16557;54.762;56.068;2023-10-08T09:38:21;7.45;;;6.67;;
29634;SDS011;16557;54.762;56.068;2023-10-08T09:41:02;7.22;;;6.62;;
29634;SDS011;16557;54.762;56.068;2023-10-08T09:43:42;7.85;;;7.15;;
29634;SDS011;16557;54.762;56.068;2023-10-08T09:46:24;9.03;;;7.35;;
29634;SDS011;16557;54.762;56.068;2023-10-08T09:49:06;7.30;;;6.60;;
29634;SDS011;16557;54.762;56.068;2023-10-08T09:51:46;7.95;;;7.15;;
29634;SDS011;16557;54.762;56.068;2023-10-08T09:54:28;6.53;;;5.95;;
29634;SDS011;16557;54.762;56.068;2023-10-08T09:57:24;7.40;;;6.70;;
29634;SDS011;16557;54.762;56.068;2023-10-08T10:00:05;5.50;;;4.97;;
29634;SDS011;16557;54.762;56.068;2023-10-08T10:02:54;6.53;;;5.90;;
29634;SDS011;16557;54.762;56.068;2023-10-08T10:05:36;7.47;;;5.37;;
29634;SDS011;16557;54.762;56.068;2023-10-08T10:08:18;4.95;;;4.53;;
29634;SDS011;16557;54.762;56.068;2023-10-08T10:11:00;4.72;;;4.28;;
29634;SDS011;16557;54.762;56.068;2023-10-08T10:13:43;3.67;;;3.35;;
29634;SDS011;16557;54.762;56.068;2023-10-08T10:16:32;4.87;;;3.58;;
29634;SDS011;16557;54.762;56.068;2023-10-08T10:19:22;4.10;;;3.70;;
29634;SDS011;16557;54.762;56.068;2023-10-08T10:22:07;3.85;;;2.90;;
29634;SDS011;16557;54.762;56.068;2023-10-08T10:24:49;3.33;;;2.60;;
29634;SDS011;16557;54.762;56.068;2023-10-08T10:27:30;2.87;;;2.05;;
29634;SDS011;16557;54.762;56.068;2023-10-08T10:30:12;2.80;;;2.00;;
29634;SDS011;16557;54.762;56.068;2023-10-08T10:32:55;3.50;;;2.02;;
29634;SDS011;16557;54.762;56.068;2023-10-08T10:35:37;2.55;;;1.92;;
29634;SDS011;16557;54.762;56.068;2023-10-08T10:38:19;2.60;;;1.35;;
29634;SDS011;16557;54.762;56.068;2023-10-08T10:41:03;2.92;;;1.17;;
29634;SDS011;16557;54.762;56.068;2023-10-08T10:43:50;1.12;;;1.02;;
29634;SDS011;16557;54.762;56.068;2023-10-08T10:46:31;2.62;;;1.00;;
29634;SDS011;16557;54.762;56.068;2023-10-08T10:49:20;1.80;;;1.10;;
29634;SDS011;16557;54.762;56.068;2023-10-08T10:52:06;3.37;;;0.98;;
29634;SDS011;16557;54.762;56.068;2023-10-08T10:54:47;1.40;;;0.90;;
29634;SDS011;16557;54.762;56.068;2023-10-08T10:57:29;1.40;;;0.90;;
29634;SDS011;16557;54.762;56.068;2023-10-08T11:00:16;1.12;;;0.60;;
29634;SDS011;16557;54.762;56.068;2023-10-08T11:03:19;0.98;;;0.78;;
29634;SDS011;16557;54.762;56.068;2023-10-08T11:06:00;1.80;;;0.80;;
29634;SDS011;16557;54.762;56.068;2023-10-08T11:08:49;0.90;;;0.75;;
29634;SDS011;16557;54.762;56.068;2023-10-08T11:11:30;1.65;;;0.90;;
29634;SDS011;16557;54.762;56.068;2023-10-08T11:14:12;3.05;;;0.93;;
29634;SDS011;16557;54.762;56.068;2023-10-08T11:16:54;2.72;;;0.80;;
29634;SDS011;16557;54.762;56.068;2023-10-08T11:19:35;1.10;;;0.78;;
29634;SDS011;16557;54.762;56.068;2023-10-08T11:22:15;0.68;;;0.50;;
29634;SDS011;16557;54.762;56.068;2023-10-08T11:24:56;2.33;;;0.70;;
29634;SDS011;16557;54.762;56.068;2023-10-08T11:27:36;2.08;;;1.05;;
29634;SDS011;16557;54.762;56.068;2023-10-08T11:30:16;1.60;;;0.90;;
29634;SDS011;16557;54.762;56.068;2023-10-08T11:32:58;0.90;;;0.80;;
29634;SDS011;16557;54.762;56.068;2023-10-08T11:35:38;2.52;;;1.60;;
29634;SDS011;16557;54.762;56.068;2023-10-08T11:38:19;2.47;;;1.10;;
29634;SDS011;16557;54.762;56.068;2023-10-08T11:41:09;1.30;;;0.90;;
29634;SDS011;16557;54.762;56.068;2023-10-08T11:43:44;2.08;;;1.00;;
29634;SDS011;16557;54.762;56.068;2023-10-08T11:49:08;1.47;;;1.20;;
29634;SDS011;16557;54.762;56.068;2023-10-08T11:51:49;1.57;;;1.05;;
29634;SDS011;16557;54.762;56.068;2023-10-08T11:54:33;2.37;;;0.85;;
29634;SDS011;16557;54.762;56.068;2023-10-08T11:57:19;1.30;;;0.72;;
29634;SDS011;16557;54.762;56.068;2023-10-08T12:00:07;1.35;;;1.15;;
29634;SDS011;16557;54.762;56.068;2023-10-08T12:02:49;3.02;;;1.82;;
29634;SDS011;16557;54.762;56.068;2023-10-08T12:05:33;1.60;;;1.10;;
29634;SDS011;16557;54.762;56.068;2023-10-08T12:08:18;1.55;;;1.00;;
29634;SDS011;16557;54.762;56.068;2023-10-08T12:11:01;2.33;;;1.40;;
29634;SDS011;16557;54.762;56.068;2023-10-08T12:13:43;4.50;;;2.60;;
29634;SDS011;16557;54.762;56.068;2023-10-08T12:16:23;6.08;;;3.22;;
29634;SDS011;16557;54.762;56.068;2023-10-08T12:19:04;2.33;;;1.50;;
29634;SDS011;16557;54.762;56.068;2023-10-08T12:21:50;4.17;;;2.52;;
29634;SDS011;16557;54.762;56.068;2023-10-08T12:24:31;1.67;;;1.30;;
29634;SDS011;16557;54.762;56.068;2023-10-08T12:27:13;1.75;;;1.15;;
29634;SDS011;16557;54.762;56.068;2023-10-08T12:29:54;2.00;;;1.35;;
29634;SDS011;16557;54.762;56.068;2023-10-08T12:32:40;3.10;;;1.70;;
29634;SDS011;16557;54.762;56.068;2023-10-08T12:35:20;2.83;;;1.37;;
29634;SDS011;16557;54.762;56.068;2023-10-08T12:38:02;5.22;;;2.62;;
29634;SDS011;16557;54.762;56.068;2023-10-08T12:40:44;5.87;;;4.33;;
29634;SDS011;16557;54.762;56.068;2023-10-08T12:43:29;3.80;;;2.62;;
29634;SDS011;16557;54.762;56.068;2023-10-08T12:46:09;2.72;;;1.92;;
29634;SDS011;16557;54.762;56.068;2023-10-08T12:48:56;2.10;;;1.50;;
29634;SDS011;16557;54.762;56.068;2023-10-08T12:51:37;2.40;;;1.52;;
29634;SDS011;16557;54.762;56.068;2023-10-08T12:54:19;2.10;;;1.57;;
29634;SDS011;16557;54.762;56.068;2023-10-08T12:57:06;2.37;;;1.47;;
29634;SDS011;16557;54.762;56.068;2023-10-08T12:59:47;6.15;;;3.30;;
29634;SDS011;16557;54.762;56.068;2023-10-08T13:02:29;2.17;;;1.50;;
29634;SDS011;16557;54.762;56.068;2023-10-08T13:05:22;3.40;;;1.50;;
29634;SDS011;16557;54.762;56.068;2023-10-08T13:08:12;2.27;;;1.70;;
29634;SDS011;16557;54.762;56.068;2023-10-08T13:10:53;5.15;;;1.60;;
29634;SDS011;16557;54.762;56.068;2023-10-08T13:13:38;1.75;;;1.17;;
29634;SDS011;16557;54.762;56.068;2023-10-08T13:16:21;2.62;;;1.30;;
29634;SDS011;16557;54.762;56.068;2023-10-08T13:19:14;2.45;;;1.50;;
29634;SDS011;16557;54.762;56.068;2023-10-08T13:22:15;2.42;;;1.40;;
29634;SDS011;16557;54.762;56.068;2023-10-08T13:24:56;2.40;;;1.70;;
29634;SDS011;16557;54.762;56.068;2023-10-08T13:27:36;2.92;;;1.60;;
29634;SDS011;16557;54.762;56.068;2023-10-08T13:30:21;2.35;;;1.62;;
29634;SDS011;16557;54.762;56.068;2023-10-08T13:33:07;3.92;;;1.95;;
29634;SDS011;16557;54.762;56.068;2023-10-08T13:35:48;3.42;;;1.42;;
29634;SDS011;16557;54.762;56.068;2023-10-08T13:38:32;3.37;;;1.87;;
29634;SDS011;16557;54.762;56.068;2023-10-08T13:41:20;2.33;;;1.67;;
29634;SDS011;16557;54.762;56.068;2023-10-08T13:44:04;5.25;;;3.10;;
29634;SDS011;16557;54.762;56.068;2023-10-08T13:46:49;3.55;;;2.50;;
29634;SDS011;16557;54.762;56.068;2023-10-08T13:49:29;3.70;;;1.72;;
29634;SDS011;16557;54.762;56.068;2023-10-08T13:52:09;2.67;;;1.50;;
29634;SDS011;16557;54.762;56.068;2023-10-08T13:54:49;3.15;;;1.60;;
29634;SDS011;16557;54.762;56.068;2023-10-08T13:57:30;2.52;;;1.85;;
29634;SDS011;16557;54.762;56.068;2023-10-08T14:00:11;2.42;;;1.70;;
29634;SDS011;16557;54.762;56.068;2023-10-08T14:02:53;2.92;;;1.92;;
29634;SDS011;16557;54.762;56.068;2023-10-08T14:05:34;3.08;;;1.60;;
29634;SDS011;16557;54.762;56.068;2023-10-08T14:08:16;4.47;;;2.40;;
29634;SDS011;16557;54.762;56.068;2023-10-08T14:11:03;6.50;;;3.67;;
29634;SDS011;16557;54.762;56.068;2023-10-08T14:13:43;4.87;;;2.15;;
29634;SDS011;16557;54.762;56.068;2023-10-08T14:16:25;3.77;;;2.62;;
29634;SDS011;16557;54.762;56.068;2023-10-08T14:19:13;3.33;;;1.95;;
29634;SDS011;16557;54.762;56.068;2023-10-08T14:21:53;6.62;;;2.30;;
29634;SDS011;16557;54.762;56.068;2023-10-08T14:24:38;3.12;;;1.87;;
29634;SDS011;16557;54.762;56.068;2023-10-08T14:27:19;5.95;;;3.95;;
29634;SDS011;16557;54.762;56.068;2023-10-08T14:30:00;7.47;;;3.25;;
29634;SDS011;16557;54.762;56.068;2023-10-08T14:32:49;3.62;;;2.10;;
29634;SDS011;16557;54.762;56.068;2023-10-08T14:35:29;3.35;;;1.95;;
29634;SDS011;16557;54.762;56.068;2023-10-08T14:38:33;3.62;;;2.20;;
29634;SDS011;16557;54.762;56.068;2023-10-08T14:41:30;3.08;;;1.60;;
29634;SDS011;16557;54.762;56.068;2023-10-08T14:44:30;4.58;;;2.60;;
29634;SDS011;16557;54.762;56.068;2023-10-08T14:47:11;2.60;;;2.00;;
29634;SDS011;16557;54.762;56.068;2023-10-08T14:49:53;3.75;;;2.12;;
29634;SDS011;16557;54.762;56.068;2023-10-08T14:52:39;5.05;;;2.27;;
29634;SDS011;16557;54.762;56.068;2023-10-08T14:55:21;3.27;;;1.98;;
29634;SDS011;16557;54.762;56.068;2023-10-08T14:58:01;2.30;;;1.42;;
29634;SDS011;16557;54.762;56.068;2023-10-08T15:00:48;2.60;;;1.20;;
29634;SDS011;16557;54.762;56.068;2023-10-08T15:03:35;2.55;;;1.00;;
29634;SDS011;16557;54.762;56.068;2023-10-08T15:06:15;2.77;;;0.95;;
29634;SDS011;16557;54.762;56.068;2023-10-08T15:09:03;2.45;;;1.10;;
29634;SDS011;16557;54.762;56.068;2023-10-08T15:11:45;1.72;;;0.98;;
29634;SDS011;16557;54.762;56.068;2023-10-08T15:14:25;0.93;;;0.72;;
29634;SDS011;16557;54.762;56.068;2023-10-08T15:17:11;3.08;;;1.07;;
29634;SDS011;16557;54.762;56.068;2023-10-08T15:19:52;1.60;;;1.02;;
29634;SDS011;16557;54.762;56.068;2023-10-08T15:22:41;1.42;;;0.88;;
29634;SDS011;16557;54.762;56.068;2023-10-08T15:25:26;1.87;;;0.78;;
29634;SDS011;16557;54.762;56.068;2023-10-08T15:28:13;3.15;;;2.45;;
29634;SDS011;16557;54.762;56.068;2023-10-08T15:30:56;1.92;;;1.00;;
29634;SDS011;16557;54.762;56.068;2023-10-08T15:33:38;2.67;;;2.08;;
29634;SDS011;16557;54.762;56.068;2023-10-08T15:36:27;3.02;;;1.30;;
29634;SDS011;16557;54.762;56.068;2023-10-08T15:39:07;2.70;;;1.92;;
29634;SDS011;16557;54.762;56.068;2023-10-08T15:41:58;3.05;;;1.10;;
29634;SDS011;16557;54.762;56.068;2023-10-08T15:44:50;1.55;;;1.00;;
29634;SDS011;16557;54.762;56.068;2023-10-08T15:47:27;2.12;;;1.10;;
29634;SDS011;16557;54.762;56.068;2023-10-08T15:50:09;2.70;;;1.55;;
29634;SDS011;16557;54.762;56.068;2023-10-08T15:52:51;2.62;;;1.40;;
29634;SDS011;16557;54.762;56.068;2023-10-08T15:55:42;3.17;;;2.30;;
29634;SDS011;16557;54.762;56.068;2023-10-08T15:58:21;4.60;;;2.98;;
29634;SDS011;16557;54.762;56.068;2023-10-08T16:01:09;2.25;;;1.15;;
29634;SDS011;16557;54.762;56.068;2023-10-08T16:03:52;1.87;;;1.42;;
29634;SDS011;16557;54.762;56.068;2023-10-08T16:06:32;1.65;;;1.10;;
29634;SDS011;16557;54.762;56.068;2023-10-08T16:09:12;1.90;;;1.07;;
29634;SDS011;16557;54.762;56.068;2023-10-08T16:11:52;2.80;;;1.27;;
29634;SDS011;16557;54.762;56.068;2023-10-08T16:14:40;2.40;;;1.90;;
29634;SDS011;16557;54.762;56.068;2023-10-08T16:17:26;2.60;;;1.15;;
29634;SDS011;16557;54.762;56.068;2023-10-08T16:20:08;3.60;;;1.27;;